Time;durP1;ratioP1;P1;durP2;ratioP2;P2;SDS_P1;SDS_P2;PMS_P1;PMS_P2;Temp;Humidity;BMP_temperature;BMP_pressure;BME280_temperature;BME280_humidity;BME280_pressure;Samples;Min_cycle;Max_cycle;Signal;HPM_P1;HPM_P2
2020/12/13 00:01:26;;;;;;;9.45;2.58;;;;;;;7.98;71.08;100533.75;5004089;28;20043;-81
2020/12/13 00:08:26;;;;;;;11.00;2.47;;;;;;;8.12;71.06;100524.75;4995136;28;20051;-82
2020/12/13 00:10:57;;;;;;;13.68;2.13;;;;;;;8.14;70.26;100515.13;4995822;28;20057;-73
2020/12/13 00:13:29;;;;;;;11.35;2.60;;;;;;;8.44;69.45;100517.31;4970981;28;20058;-72
2020/12/13 00:15:57;;;;;;;12.55;2.80;;;;;;;8.26;69.47;100517.38;4962907;28;20058;-81
2020/12/13 00:22:54;;;;;;;12.75;2.60;;;;;;;8.40;69.62;100527.28;4978599;28;20039;-81
2020/12/13 00:25:21;;;;;;;17.58;2.72;;;;;;;8.52;68.96;100532.25;4977741;28;20047;-78
2020/12/13 00:27:48;;;;;;;15.50;6.10;;;;;;;8.25;69.55;100530.28;4979934;28;20055;-81
2020/12/13 00:30:15;;;;;;;13.43;5.63;;;;;;;8.15;69.77;100538.69;4981261;28;20050;-78
2020/12/13 00:37:11;;;;;;;10.57;2.75;;;;;;;8.14;69.95;100528.84;4980886;28;20038;-80
2020/12/13 00:39:38;;;;;;;12.80;2.65;;;;;;;8.38;69.36;100534.19;4981182;28;20066;-80
2020/12/13 00:42:06;;;;;;;17.55;2.97;;;;;;;8.03;69.65;100524.63;4962635;28;20062;-80
2020/12/13 00:44:34;;;;;;;18.80;2.92;;;;;;;8.07;69.42;100533.91;4985624;28;20073;-79
2020/12/13 00:47:04;;;;;;;9.40;2.42;;;;;;;8.40;68.80;100527.28;4973082;28;20059;-77
2020/12/13 00:49:31;;;;;;;16.42;3.28;;;;;;;8.31;68.70;100529.09;4971420;28;20069;-77
2020/12/13 00:52:04;;;;;;;12.35;2.47;;;;;;;7.97;69.54;100523.91;4969428;28;20051;-78
2020/12/13 00:54:40;;;;;;;16.63;3.10;;;;;;;8.00;69.84;100528.78;4966806;28;20431;-79
2020/12/13 00:57:09;;;;;;;13.80;2.90;;;;;;;7.96;70.05;100521.47;4964397;28;20042;-78
2020/12/13 00:59:37;;;;;;;11.00;2.63;;;;;;;8.12;69.38;100524.75;4982961;28;20391;-80
2020/12/13 01:02:05;;;;;;;16.15;2.85;;;;;;;7.80;70.34;100539.28;4984126;28;20039;-80
2020/12/13 01:04:34;;;;;;;14.05;3.00;;;;;;;7.94;70.00;100531.91;4982139;28;20403;-79
2020/12/13 01:07:03;;;;;;;12.47;2.73;;;;;;;7.90;70.28;100547.34;4973351;28;20085;-79
2020/12/13 01:09:32;;;;;;;14.57;2.40;;;;;;;8.05;69.24;100560.81;4985757;28;20300;-78
2020/12/13 01:12:01;;;;;;;13.40;3.00;;;;;;;7.89;69.80;100560.25;4983763;28;20414;-78
2020/12/13 01:14:28;;;;;;;13.27;2.25;;;;;;;7.48;71.05;100559.25;5001985;28;20054;-77
2020/12/13 01:16:56;;;;;;;10.10;2.72;;;;;;;7.53;71.98;100563.84;4987463;28;20054;-79
2020/12/13 01:19:24;;;;;;;15.88;2.63;;;;;;;7.66;71.04;100560.34;4999814;28;20042;-83
2020/12/13 01:21:56;;;;;;;12.52;2.50;;;;;;;7.75;70.56;100567.59;5000283;28;20046;-81
2020/12/13 01:24:25;;;;;;;18.88;2.67;;;;;;;8.18;69.79;100562.75;4965623;28;20054;-80
2020/12/13 01:26:53;;;;;;;9.45;2.10;;;;;;;8.18;68.79;100564.69;4997991;28;20055;-80
2020/12/13 01:29:20;;;;;;;12.38;2.45;;;;;;;7.98;70.04;100565.88;4998287;28;20471;-82
2020/12/13 01:31:47;;;;;;;14.55;2.50;;;;;;;7.92;69.76;100567.03;4980639;28;20050;-78
2020/12/13 01:34:14;;;;;;;11.00;2.42;;;;;;;7.90;70.41;100566.53;4997158;28;20057;-83
2020/12/13 01:36:41;;;;;;;16.23;3.10;;;;;;;7.78;70.47;100560.69;4997505;28;20061;-82
2020/12/13 01:39:09;;;;;;;11.95;2.75;;;;;;;7.92;70.37;100569.78;4997353;28;20486;-79
2020/12/13 01:41:38;;;;;;;12.15;2.20;;;;;;;7.80;70.40;100586.72;4995903;28;20061;-80
2020/12/13 01:44:05;;;;;;;9.13;2.38;;;;;;;8.13;69.92;100593.03;4996679;28;20049;-80
2020/12/13 01:46:34;;;;;;;11.18;3.03;;;;;;;8.16;69.62;100589.66;4997167;28;20050;-80
2020/12/13 01:49:07;;;;;;;15.63;2.90;;;;;;;8.35;68.98;100590.47;4997910;28;20038;-77
2020/12/13 01:51:55;;;;;;;11.77;2.78;;;;;;;8.41;68.52;100591.19;4998640;28;20293;-78
2020/12/13 01:54:22;;;;;;;10.93;2.60;;;;;;;8.47;68.13;100598.22;4999706;28;20058;-79
2020/12/13 01:56:54;;;;;;;17.05;3.13;;;;;;;8.04;69.39;100597.56;5000802;28;20057;-81
2020/12/13 01:59:22;;;;;;;12.02;2.78;;;;;;;8.06;69.53;100598.09;5002418;28;20058;-79
2020/12/13 02:01:50;;;;;;;14.98;3.40;;;;;;;8.14;69.43;100594.66;5001291;28;20046;-77
2020/12/13 02:04:21;;;;;;;13.40;3.28;;;;;;;7.94;70.01;100605.97;4978906;28;20050;-77
2020/12/13 02:06:53;;;;;;;14.40;2.88;;;;;;;8.04;70.24;100603.03;4979596;28;20407;-77
2020/12/13 02:09:21;;;;;;;13.07;2.70;;;;;;;8.10;69.59;100601.88;4997494;28;20095;-75
2020/12/13 02:11:50;;;;;;;15.88;3.10;;;;;;;7.71;70.58;100604.13;4996501;28;20061;-79
2020/12/13 02:14:18;;;;;;;12.50;2.83;;;;;;;8.14;69.81;100605.66;4978953;28;20053;-77
2020/12/13 02:16:50;;;;;;;11.25;2.92;;;;;;;8.12;69.14;100596.06;4995243;28;20494;-79
2020/12/13 02:19:18;;;;;;;18.58;3.35;;;;;;;8.11;69.66;100606.22;4980099;28;20046;-81
2020/12/13 02:21:49;;;;;;;12.50;3.08;;;;;;;8.05;69.74;100599.22;4997207;28;20045;-83
2020/12/13 02:24:19;;;;;;;15.07;3.05;;;;;;;7.88;70.42;100601.66;4997361;28;20450;-79
2020/12/13 02:26:47;;;;;;;17.55;3.30;;;;;;;7.84;70.40;100601.47;4979246;28;20061;-76
2020/12/13 02:29:15;;;;;;;11.45;3.05;;;;;;;7.90;69.91;100602.19;4995742;28;20057;-75
2020/12/13 02:31:43;;;;;;;16.50;2.83;;;;;;;7.69;70.47;100612.66;4980286;28;20483;-77
2020/12/13 02:34:12;;;;;;;23.23;3.00;;;;;;;7.54;71.33;100601.09;4996479;28;20398;-78
2020/12/13 02:36:38;;;;;;;14.52;3.53;;;;;;;7.64;71.26;100604.50;4999072;28;20047;-79
2020/12/13 02:39:08;;;;;;;12.65;3.22;;;;;;;7.78;70.73;100593.59;4998304;28;20062;-79
2020/12/13 02:41:35;;;;;;;16.83;3.20;;;;;;;7.49;71.67;100603.91;4984479;28;20054;-80
2020/12/13 02:44:02;;;;;;;13.57;3.00;;;;;;;7.52;71.27;100603.31;5006558;28;20054;-80
2020/12/13 02:46:29;;;;;;;18.58;2.88;;;;;;;7.37;71.97;100604.34;5013423;28;20055;-80
2020/12/13 02:48:57;;;;;;;11.25;2.85;;;;;;;7.26;72.38;100594.63;4993676;28;20057;-79
2020/12/13 02:51:24;;;;;;;12.20;3.22;;;;;;;7.31;72.65;100604.69;5007911;28;20534;-81
2020/12/13 02:53:52;;;;;;;15.27;2.70;;;;;;;7.17;73.06;100596.41;5002477;28;20073;-79
2020/12/13 02:56:19;;;;;;;21.73;2.45;;;;;;;7.25;73.16;100597.69;5002079;28;20422;-80
2020/12/13 02:58:46;;;;;;;17.48;3.60;;;;;;;7.12;73.02;100593.72;5004191;28;20058;-81
2020/12/13 03:01:13;;;;;;;15.30;2.80;;;;;;;7.19;72.53;100596.09;5006660;28;20038;-78
2020/12/13 03:03:46;;;;;;;15.93;2.63;;;;;;;7.28;72.26;100583.38;5000485;28;20122;-79
2020/12/13 03:06:15;;;;;;;16.67;2.88;;;;;;;7.44;71.92;100582.06;4996474;28;20050;-77
2020/12/13 03:08:42;;;;;;;13.43;2.97;;;;;;;7.69;71.24;100584.41;4995612;28;20049;-80
2020/12/13 03:11:09;;;;;;;19.33;3.80;;;;;;;7.08;72.65;100589.13;4994516;28;20047;-80
2020/12/13 03:13:36;;;;;;;11.50;3.00;;;;;;;7.29;72.16;100594.03;4995440;28;20046;-83
2020/12/13 03:16:03;;;;;;;12.43;2.63;;;;;;;7.48;71.64;100594.06;4982291;28;20053;-81
2020/12/13 03:18:31;;;;;;;13.77;3.08;;;;;;;7.30;71.92;100586.66;4998242;28;20042;-80
2020/12/13 03:20:59;;;;;;;15.65;3.50;;;;;;;7.38;72.11;100578.56;4999504;28;20464;-80
2020/12/13 03:23:27;;;;;;;12.85;3.20;;;;;;;7.44;71.17;100576.59;5002436;28;20580;-79
2020/12/13 03:25:54;;;;;;;13.07;2.63;;;;;;;7.53;71.12;100577.56;4985717;28;20046;-78
2020/12/13 03:28:21;;;;;;;14.93;2.65;;;;;;;7.73;70.62;100577.22;5003133;28;20102;-78
2020/12/13 03:30:49;;;;;;;13.52;3.22;;;;;;;7.61;70.72;100571.38;4997886;28;20054;-78
2020/12/13 03:33:16;;;;;;;15.93;2.78;;;;;;;7.51;70.78;100577.84;4996535;28;20122;-78
2020/12/13 03:40:21;;;;;;;15.57;2.90;;;;;;;7.26;71.81;100591.06;4994312;28;20053;-78
2020/12/13 03:42:49;;;;;;;14.35;3.25;;;;;;;7.17;72.16;100585.44;4996626;28;20051;-77
2020/12/13 03:45:17;;;;;;;15.32;3.65;;;;;;;7.47;71.25;100592.44;4993643;28;20058;-79
2020/12/13 03:47:48;;;;;;;17.05;2.80;;;;;;;7.52;71.48;100586.88;4977053;28;20160;-79
2020/12/13 03:50:15;;;;;;;15.40;2.78;;;;;;;7.54;70.79;100590.97;4996340;28;20050;-80
2020/12/13 03:52:43;;;;;;;14.77;2.92;;;;;;;7.33;71.49;100602.47;4984310;28;20050;-80
2020/12/13 03:55:09;;;;;;;13.90;2.80;;;;;;;7.19;71.87;100598.84;4997936;28;20054;-80
2020/12/13 03:57:36;;;;;;;11.52;3.45;;;;;;;7.32;71.71;100596.19;4979539;28;20391;-80
2020/12/13 04:00:04;;;;;;;14.25;2.78;;;;;;;7.34;71.91;100599.44;4995896;28;20050;-79
2020/12/13 04:02:34;;;;;;;10.10;2.60;;;;;;;7.25;72.03;100600.41;4980009;28;20046;-77
2020/12/13 04:05:00;;;;;;;12.48;3.00;;;;;;;7.48;71.11;100594.88;4982885;28;20046;-78
2020/12/13 04:07:28;;;;;;;16.17;2.95;;;;;;;7.32;71.69;100603.59;4985839;28;20058;-76
2020/12/13 04:09:54;;;;;;;17.50;3.67;;;;;;;7.39;71.68;100604.06;5002719;28;20058;-78
2020/12/13 04:12:21;;;;;;;12.13;2.75;;;;;;;7.21;71.93;100602.94;4987838;28;20062;-79
2020/12/13 04:14:49;;;;;;;12.18;2.30;;;;;;;7.21;72.53;100605.66;4984087;28;20506;-79
2020/12/13 04:17:20;;;;;;;20.45;3.22;;;;;;;7.31;71.69;100604.69;4976043;28;20062;-80
2020/12/13 04:19:47;;;;;;;11.18;3.25;;;;;;;7.53;71.11;100610.44;4994950;28;20039;-84
2020/12/13 04:22:14;;;;;;;12.48;3.15;;;;;;;7.18;71.45;100611.75;4978045;28;20050;-80
2020/12/13 04:24:41;;;;;;;15.02;3.03;;;;;;;7.05;72.72;100606.97;4977046;28;20051;-83
2020/12/13 04:27:08;;;;;;;15.88;2.92;;;;;;;6.84;73.25;100605.56;4980886;28;20066;-78
2020/12/13 04:29:36;;;;;;;15.13;2.67;;;;;;;7.02;73.09;100604.81;4994794;28;20042;-78
2020/12/13 04:32:03;;;;;;;16.33;2.97;;;;;;;7.36;72.25;100610.09;4978945;28;20050;-80
2020/12/13 04:34:30;;;;;;;12.07;3.03;;;;;;;7.19;72.41;100612.53;4979264;28;20047;-82
2020/12/13 04:37:00;;;;;;;11.48;3.08;;;;;;;7.34;71.72;100612.34;4980465;28;20502;-81
2020/12/13 04:39:27;;;;;;;;;;;;;;;7.37;71.82;100603.53;4996874;28;20487;-79
2020/12/13 04:41:55;;;;;;;14.07;3.00;;;;;;;7.56;71.15;100598.88;4980817;28;20271;-78
2020/12/13 04:44:23;;;;;;;13.70;3.15;;;;;;;7.16;72.19;100603.00;4987918;28;20424;-81
2020/12/13 04:46:53;;;;;;;16.42;3.13;;;;;;;6.98;72.48;100608.41;4993382;28;20051;-80
2020/12/13 04:53:49;;;;;;;11.38;2.92;;;;;;;6.47;75.06;100614.44;4969464;28;20061;-81
2020/12/13 04:56:19;;;;;;;12.30;3.20;;;;;;;6.66;74.63;100615.34;4986111;28;20163;-80
2020/12/13 04:58:46;;;;;;;11.32;3.38;;;;;;;6.68;74.34;100615.88;4997490;28;20055;-81
2020/12/13 05:01:14;;;;;;;15.77;3.33;;;;;;;6.61;74.58;100611.84;4994153;28;20518;-82
2020/12/13 05:08:09;;;;;;;12.35;2.65;;;;;;;6.59;74.76;100606.66;4976550;28;20051;-78
2020/12/13 05:10:38;;;;;;;13.43;3.30;;;;;;;6.70;74.08;100607.38;4979222;28;20047;-81
2020/12/13 05:13:07;;;;;;;15.23;2.92;;;;;;;6.60;75.19;100608.31;4978888;28;20059;-82
2020/12/13 05:15:37;;;;;;;11.38;2.78;;;;;;;6.55;75.32;100623.97;4976198;28;20062;-80
2020/12/13 05:18:05;;;;;;;17.83;3.47;;;;;;;6.61;74.68;100614.56;4992689;28;20050;-80
2020/12/13 05:20:32;;;;;;;18.27;3.25;;;;;;;6.44;75.42;100614.22;4992980;28;20372;-82
2020/12/13 05:23:01;;;;;;;17.73;3.53;;;;;;;6.61;75.04;100615.41;4983571;28;20042;-84
2020/12/13 05:25:32;;;;;;;13.30;3.03;;;;;;;6.52;75.28;100616.34;5000984;28;20220;-82
2020/12/13 05:28:01;;;;;;;12.65;3.63;;;;;;;6.49;76.07;100616.88;4991948;28;20054;-81
2020/12/13 05:30:33;;;;;;;14.17;3.40;;;;;;;6.61;74.83;100623.59;4991318;28;20079;-81
2020/12/13 05:33:11;;;;;;;12.23;3.15;;;;;;;6.32;76.15;100627.47;4977773;28;20073;-85
2020/12/13 05:35:38;;;;;;;11.15;3.00;;;;;;;6.38;76.08;100637.25;4979294;28;20055;-82
2020/12/13 05:38:12;;;;;;;13.93;3.15;;;;;;;6.20;75.90;100636.06;4980259;28;20043;-86
2020/12/13 05:40:40;;;;;;;15.70;3.88;;;;;;;6.47;75.75;100628.13;4982666;28;20047;-78
2020/12/13 05:43:14;;;;;;;17.20;3.47;;;;;;;6.30;75.78;100635.97;4978643;28;20058;-84
2020/12/13 05:53:27;;;;;;;10.57;3.53;;;;;;;6.12;76.92;100633.13;4975356;28;20050;-78
2020/12/13 05:55:57;;;;;;;11.85;3.28;;;;;;;6.22;76.25;100627.56;4975915;28;20055;-81
2020/12/13 05:58:27;;;;;;;;;;;;;;;6.02;75.95;100625.81;4977708;28;20051;-81
2020/12/13 06:00:58;;;;;;;14.38;3.70;;;;;;;5.90;76.92;100621.78;4976517;28;20378;-81
2020/12/13 06:03:35;;;;;;;17.23;3.80;;;;;;;6.04;76.64;100636.44;4990593;28;20053;-81
2020/12/13 06:06:07;;;;;;;15.57;3.97;;;;;;;5.88;77.54;100626.72;4974342;28;20065;-81
2020/12/13 06:09:09;;;;;;;17.15;3.90;;;;;;;6.10;76.49;100624.38;4982230;28;20043;-80
2020/12/13 06:11:46;;;;;;;15.02;3.83;;;;;;;6.51;75.42;100620.16;4995356;28;20047;-81
2020/12/13 06:14:17;;;;;;;17.05;4.32;;;;;;;6.45;75.47;100622.13;4976302;28;20058;-82
2020/12/13 06:16:45;;;;;;;15.50;4.32;;;;;;;6.01;75.72;100626.91;4976969;28;20043;-79
2020/12/13 06:23:44;;;;;;;18.33;4.40;;;;;;;5.87;77.19;100628.66;4981280;28;20047;-79
2020/12/13 06:26:11;;;;;;;11.35;3.95;;;;;;;5.73;78.13;100624.91;4996182;28;20047;-81
2020/12/13 06:28:38;;;;;;;16.42;4.50;;;;;;;5.61;78.06;100627.16;4976578;28;20078;-82
2020/12/13 06:31:07;;;;;;;20.35;5.57;;;;;;;5.72;78.13;100624.06;4978296;28;20407;-82
2020/12/13 06:33:42;;;;;;;14.90;4.28;;;;;;;5.81;77.40;100621.56;4996356;28;20057;-80
2020/12/13 06:36:09;;;;;;;15.40;4.38;;;;;;;5.70;77.31;100626.25;4996668;28;20061;-80
2020/12/13 06:38:41;;;;;;;17.40;4.70;;;;;;;5.61;77.91;100618.97;4998114;28;20034;-78
2020/12/13 06:41:10;;;;;;;21.23;4.70;;;;;;;5.61;77.99;100627.97;5013476;28;20051;-77
2020/12/13 06:43:38;;;;;;;17.15;4.20;;;;;;;5.55;77.88;100625.56;5013643;28;20045;-80
2020/12/13 06:46:13;;;;;;;16.05;4.90;;;;;;;5.77;77.43;100628.69;4997234;28;20061;-81
2020/12/13 06:48:41;;;;;;;14.20;4.95;;;;;;;5.71;77.42;100621.63;4996875;28;20061;-77
2020/12/13 06:51:09;;;;;;;12.45;4.32;;;;;;;5.89;77.15;100625.63;4997672;28;20057;-81
2020/12/13 06:53:37;;;;;;;19.35;5.72;;;;;;;5.68;77.22;100627.66;5013206;28;20035;-78
2020/12/13 06:56:07;;;;;;;15.48;4.20;;;;;;;5.67;77.36;100620.56;5011435;28;20057;-78
2020/12/13 06:58:48;;;;;;;14.63;4.13;;;;;;;5.67;77.56;100620.56;4997125;28;20043;-79
2020/12/13 07:01:19;;;;;;;18.33;4.57;;;;;;;5.74;77.59;100621.88;4996613;28;20027;-79
2020/12/13 07:03:47;;;;;;;14.40;4.85;;;;;;;5.51;78.01;100621.75;4997152;28;20047;-83
2020/12/13 07:06:27;;;;;;;14.05;4.90;;;;;;;5.64;78.04;100613.75;4996702;28;20054;-84
2020/12/13 07:09:00;;;;;;;16.63;5.07;;;;;;;5.56;77.95;100622.53;5016859;28;20039;-80
2020/12/13 07:11:29;;;;;;;15.68;4.60;;;;;;;5.69;77.91;100623.81;5016153;28;20046;-78
2020/12/13 07:14:06;;;;;;;12.63;4.93;;;;;;;5.63;77.41;100633.97;5013813;28;20052;-78
2020/12/13 07:16:39;;;;;;;18.30;5.15;;;;;;;5.55;77.83;100628.28;4952899;28;20302;-78
2020/12/13 07:23:03;;;;;;;14.95;4.55;;;;;;;5.67;77.53;100631.47;4996962;28;20042;-80
2020/12/13 07:25:30;;;;;;;17.60;4.53;;;;;;;5.55;78.13;100625.56;4997130;28;20058;-78
2020/12/13 07:27:57;;;;;;;18.58;4.82;;;;;;;5.59;78.29;100629.34;4982352;28;20038;-81
2020/12/13 07:30:25;;;;;;;17.88;4.85;;;;;;;5.38;79.03;100633.31;4996317;28;20061;-81
2020/12/13 07:32:52;;;;;;;16.98;4.50;;;;;;;5.65;78.11;100625.47;4980459;28;20065;-79
2020/12/13 07:40:08;;;;;;;13.50;4.28;;;;;;;5.68;77.80;100625.72;4997676;28;20375;-82
2020/12/13 07:42:36;;;;;;;;;;;;;;;5.69;78.41;100630.13;4999209;28;20046;-83
2020/12/13 07:45:06;;;;;;;13.07;4.43;;;;;;;5.88;77.86;100629.44;4998716;28;19921;-79
2020/12/13 07:47:33;;;;;;;17.42;5.63;;;;;;;5.78;77.99;100637.69;5000466;28;20046;-81
2020/12/13 07:50:05;;;;;;;12.30;4.75;;;;;;;5.78;77.78;100641.25;5002929;28;20038;-83
2020/12/13 07:52:32;;;;;;;13.30;5.22;;;;;;;5.83;77.97;100637.69;4987843;28;20066;-81
2020/12/13 07:55:05;;;;;;;13.30;4.90;;;;;;;6.00;77.46;100638.13;5005089;28;20403;-81
2020/12/13 07:57:35;;;;;;;20.65;4.70;;;;;;;6.14;77.12;100630.88;5000381;28;20047;-84
2020/12/13 08:00:07;;;;;;;15.75;4.95;;;;;;;6.03;76.99;100638.38;4998280;28;20050;-79
2020/12/13 08:02:37;;;;;;;17.38;5.13;;;;;;;6.08;77.17;100645.72;4998191;28;20045;-79
2020/12/13 08:05:04;;;;;;;15.52;5.18;;;;;;;6.14;76.93;100642.66;4998401;28;20054;-79
2020/12/13 08:07:31;;;;;;;15.88;5.07;;;;;;;6.01;77.31;100637.84;4979118;28;20062;-79
2020/12/13 08:09:58;;;;;;;15.50;4.88;;;;;;;6.15;76.67;100638.84;4980098;28;20062;-80
2020/12/13 08:12:30;;;;;;;15.55;5.15;;;;;;;6.47;75.46;100625.41;4994006;28;20054;-80
2020/12/13 08:14:57;;;;;;;15.77;5.78;;;;;;;6.22;76.26;100638.50;4979108;28;20047;-81
2020/12/13 08:17:25;;;;;;;23.00;9.98;;;;;;;6.27;76.18;100646.66;4976719;28;20051;-79
2020/12/13 08:19:56;;;;;;;18.10;5.93;;;;;;;6.11;76.76;100647.88;4978428;28;20509;-79
2020/12/13 08:22:24;;;;;;;12.20;5.03;;;;;;;6.24;75.97;100648.03;4976968;28;20058;-79
2020/12/13 08:24:57;;;;;;;19.15;5.95;;;;;;;6.07;76.73;100644.91;4993271;28;20541;-82
2020/12/13 08:27:27;;;;;;;15.93;5.15;;;;;;;6.16;76.66;100645.91;4978475;28;20057;-83
2020/12/13 08:29:56;;;;;;;15.45;5.70;;;;;;;6.23;76.73;100648.31;4963306;28;20050;-82
2020/12/13 08:32:24;;;;;;;15.45;5.68;;;;;;;6.15;76.65;100644.31;4981393;28;20488;-83
2020/12/13 08:34:52;;;;;;;17.40;5.55;;;;;;;6.33;75.98;100640.84;4963977;28;20073;-83
2020/12/13 08:37:23;;;;;;;13.05;5.78;;;;;;;6.47;75.53;100650.00;4981001;28;20050;-81
2020/12/13 08:39:50;;;;;;;18.27;6.47;;;;;;;6.49;75.59;100653.28;4996324;28;20062;-82
2020/12/13 08:42:24;;;;;;;14.65;5.85;;;;;;;6.50;75.64;100660.38;4981549;28;20054;-82
2020/12/13 08:44:52;;;;;;;45.33;24.65;;;;;;;6.43;75.98;100659.91;4986844;28;20047;-84
2020/12/13 08:47:20;;;;;;;21.95;6.93;;;;;;;6.33;76.45;100670.13;4983184;28;20062;-82
2020/12/13 08:49:49;;;;;;;14.82;5.95;;;;;;;6.50;76.02;100662.31;4981684;28;20419;-79
2020/12/13 08:52:17;;;;;;;18.17;5.47;;;;;;;6.48;75.83;100664.53;4978306;28;20051;-83
2020/12/13 08:55:04;;;;;;;13.75;6.32;;;;;;;6.41;75.96;100664.03;4990333;28;20047;-78
2020/12/13 08:57:32;;;;;;;29.63;13.23;;;;;;;6.57;76.46;100665.53;4992149;28;20051;-79
2020/12/13 08:59:59;;;;;;;23.50;9.70;;;;;;;6.91;76.32;100663.53;4976108;28;20514;-79
2020/12/13 09:02:54;;;;;;;17.63;7.00;;;;;;;6.99;75.14;100662.88;4977703;28;20050;-77
2020/12/13 09:05:31;;;;;;;13.50;5.53;;;;;;;7.22;74.41;100669.50;4992859;28;20050;-78
2020/12/13 09:07:59;;;;;;;13.93;6.32;;;;;;;7.19;74.31;100664.56;4961789;28;20502;-79
2020/12/13 09:10:36;;;;;;;15.85;6.10;;;;;;;7.06;74.94;100659.81;4977783;28;20066;-82
2020/12/13 09:13:08;;;;;;;18.17;7.07;;;;;;;7.08;74.19;100657.59;4962785;28;20055;-80
2020/12/13 09:15:35;;;;;;;16.90;6.63;;;;;;;7.20;74.31;100660.75;4983495;28;20058;-83
2020/12/13 09:18:02;;;;;;;19.38;6.95;;;;;;;7.12;74.24;100655.91;4970241;28;20051;-81
2020/12/13 09:20:36;;;;;;;20.55;6.95;;;;;;;7.22;73.60;100653.06;4981846;28;20057;-75
2020/12/13 09:23:19;;;;;;;27.35;11.35;;;;;;;7.21;73.79;100659.63;4981658;28;20054;-78
2020/12/13 09:25:48;;;;;;;17.95;7.00;;;;;;;7.28;73.59;100660.91;4978449;28;20054;-80
2020/12/13 09:28:16;;;;;;;13.05;6.15;;;;;;;7.04;74.50;100665.59;4992585;28;20043;-76
2020/12/13 09:30:44;;;;;;;14.57;7.18;;;;;;;6.99;74.85;100651.94;4977571;28;20055;-77
2020/12/13 09:33:17;;;;;;;16.35;6.40;;;;;;;7.05;74.95;100653.50;4997375;28;20045;-81
2020/12/13 09:35:44;;;;;;;20.38;8.02;;;;;;;7.02;74.76;100662.31;4977119;28;20053;-79
2020/12/13 09:38:14;;;;;;;19.70;7.50;;;;;;;7.07;74.51;100653.22;4962409;28;20066;-79
2020/12/13 09:40:42;;;;;;;18.55;7.97;;;;;;;7.06;74.51;100659.81;4980041;28;20050;-73
2020/12/13 09:43:09;;;;;;;19.52;7.75;;;;;;;7.13;74.77;100655.59;4976453;28;20062;-79
2020/12/13 09:45:36;;;;;;;19.95;8.10;;;;;;;7.11;74.30;100652.38;4983648;28;20054;-80
2020/12/13 09:48:04;;;;;;;15.88;7.80;;;;;;;7.24;74.26;100654.38;4985785;28;20453;-78
2020/12/13 09:50:33;;;;;;;15.75;7.65;;;;;;;7.68;73.73;100654.06;4984291;28;20057;-79
2020/12/13 09:53:00;;;;;;;19.17;8.25;;;;;;;7.77;72.73;100655.03;4986744;28;20050;-79
2020/12/13 09:55:27;;;;;;;17.67;8.05;;;;;;;7.70;72.17;100660.91;4982609;28;20058;-80
2020/12/13 09:57:54;;;;;;;18.45;7.78;;;;;;;7.28;72.98;100657.34;4998323;28;20047;-78
2020/12/13 10:00:24;;;;;;;17.45;7.65;;;;;;;7.14;74.12;100657.25;4982236;28;20418;-76
2020/12/13 10:02:53;;;;;;;17.67;7.32;;;;;;;7.16;73.99;100662.44;4981259;28;20443;-78
2020/12/13 10:05:36;;;;;;;17.90;7.53;;;;;;;7.11;74.10;100657.84;4989587;28;20054;-85
2020/12/13 10:10:07;;;;;;;18.77;7.25;;;;;;;7.37;73.52;100639.97;5004256;28;20053;-80
2020/12/13 10:12:34;;;;;;;17.98;7.00;;;;;;;7.24;74.02;100639.84;4982274;28;20046;-84
2020/12/13 10:15:10;;;;;;;18.98;7.03;;;;;;;7.43;73.38;100638.78;4993583;28;20509;-84
2020/12/13 10:17:41;;;;;;;20.45;7.53;;;;;;;7.54;73.23;100623.84;4979688;28;20054;-82
2020/12/13 10:20:08;;;;;;;16.15;6.70;;;;;;;7.46;73.35;100621.75;4977278;28;20047;-81
2020/12/13 10:27:05;;;;;;;19.40;7.03;;;;;;;7.89;73.07;100619.75;4985589;28;20475;-80
2020/12/13 10:29:33;;;;;;;20.55;6.85;;;;;;;7.75;73.45;100611.47;4992669;28;20042;-80
2020/12/13 10:32:01;;;;;;;20.40;7.28;;;;;;;7.78;72.76;100605.38;4996879;28;20061;-81
2020/12/13 10:34:29;;;;;;;15.68;6.68;;;;;;;7.88;73.39;100621.69;4980747;28;20060;-80
2020/12/13 10:36:56;;;;;;;22.98;7.10;;;;;;;7.77;72.55;100619.41;4996085;28;20030;-79
2020/12/13 10:39:26;;;;;;;17.77;6.45;;;;;;;7.52;73.10;100627.97;4994450;28;20049;-78
2020/12/13 10:41:55;;;;;;;18.73;6.88;;;;;;;7.66;73.16;100631.63;4986333;28;20047;-79
2020/12/13 10:44:22;;;;;;;19.88;6.40;;;;;;;7.66;72.15;100621.47;4979209;28;20043;-82
2020/12/13 10:46:49;;;;;;;23.30;8.82;;;;;;;7.80;72.65;100619.63;4977599;28;20047;-76
2020/12/13 10:49:16;;;;;;;48.17;20.02;;;;;;;7.88;72.06;100618.09;4976377;28;20050;-76
2020/12/13 10:51:43;;;;;;;16.58;7.18;;;;;;;7.82;71.61;100613.84;4978417;28;20047;-76
2020/12/13 10:54:10;;;;;;;16.48;6.93;;;;;;;7.73;71.84;100607.38;4976917;28;20069;-76
2020/12/13 10:56:38;;;;;;;23.52;7.45;;;;;;;7.70;71.95;100603.34;4979196;28;20047;-80
2020/12/13 10:59:05;;;;;;;18.23;7.28;;;;;;;7.63;72.84;100610.28;4982527;28;20062;-81
2020/12/13 11:01:32;;;;;;;23.52;9.35;;;;;;;7.83;71.89;100599.00;4981198;28;20396;-80
2020/12/13 11:04:00;;;;;;;17.52;6.13;;;;;;;7.96;72.00;100596.34;4998907;28;20047;-82
2020/12/13 11:06:29;;;;;;;26.45;6.00;;;;;;;7.78;71.97;100599.91;4984018;28;20058;-79
2020/12/13 11:08:56;;;;;;;21.48;6.78;;;;;;;7.64;72.19;100601.75;4979440;28;20392;-82
2020/12/13 11:11:24;;;;;;;14.48;5.45;;;;;;;7.69;72.43;100595.38;4978203;28;20046;-81
2020/12/13 11:13:55;;;;;;;14.40;5.55;;;;;;;7.74;72.75;100590.63;4993619;28;20054;-79
2020/12/13 11:16:22;;;;;;;14.05;5.80;;;;;;;7.98;71.83;100594.09;4977606;28;20062;-80
2020/12/13 11:18:49;;;;;;;18.85;6.53;;;;;;;8.00;71.70;100582.84;4978143;28;20058;-78
2020/12/13 11:21:16;;;;;;;19.77;5.95;;;;;;;7.95;72.45;100577.41;4993735;28;20050;-84
2020/12/13 11:28:15;;;;;;;24.10;6.22;;;;;;;8.05;71.86;100573.69;4980816;28;20038;-80
2020/12/13 11:30:46;;;;;;;16.55;6.45;;;;;;;8.10;71.70;100573.59;4978639;28;20046;-78
2020/12/13 11:33:13;;;;;;;17.75;5.30;;;;;;;8.15;71.85;100562.53;4978279;28;20062;-82
2020/12/13 11:35:48;;;;;;;17.27;6.20;;;;;;;8.21;71.72;100555.88;4976163;28;20051;-81
2020/12/13 11:38:15;;;;;;;19.75;5.53;;;;;;;8.23;71.51;100551.69;4979147;28;20046;-81
2020/12/13 11:40:42;;;;;;;17.45;5.88;;;;;;;8.28;71.38;100554.38;4979222;28;20058;-76
2020/12/13 11:43:12;;;;;;;;;;;;;;;8.25;71.50;100543.19;4985303;28;20164;-80
2020/12/13 11:45:48;;;;;;;15.23;5.18;;;;;;;8.33;71.35;100548.00;4999817;28;19929;-80
2020/12/13 11:48:18;;;;;;;13.82;5.30;;;;;;;8.43;71.04;100554.09;4978711;28;20058;-80
2020/12/13 11:50:50;;;;;;;16.55;4.80;;;;;;;8.42;71.21;100549.72;4977671;28;20054;-81
2020/12/13 11:53:17;;;;;;;15.35;5.43;;;;;;;8.45;71.36;100551.06;4978526;28;20302;-82
2020/12/13 11:55:47;;;;;;;;;;;;;;;8.45;71.11;100546.38;4981315;28;20050;-79
2020/12/13 11:58:17;;;;;;;17.20;5.55;;;;;;;8.64;70.91;100543.53;4994632;28;19921;-79
2020/12/13 12:00:44;;;;;;;19.27;6.57;;;;;;;8.79;70.18;100540.47;4980519;28;20050;-78
2020/12/13 12:03:13;;;;;;;18.52;5.13;;;;;;;8.67;70.91;100524.53;4981045;28;20076;-77
2020/12/13 12:05:43;;;;;;;20.60;5.22;;;;;;;8.58;71.37;100531.84;4979314;28;20046;-76
2020/12/13 12:08:10;;;;;;;45.15;15.13;;;;;;;8.73;70.87;100517.84;4977492;28;20491;-78
2020/12/13 12:10:37;;;;;;;19.30;7.50;;;;;;;8.95;70.45;100522.56;4993951;28;20486;-77
2020/12/13 12:13:07;;;;;;;15.68;5.93;;;;;;;8.70;70.63;100528.63;4996592;28;20050;-82
2020/12/13 12:15:40;;;;;;;15.02;5.22;;;;;;;8.66;71.45;100530.34;4980467;28;20038;-79
2020/12/13 12:18:07;;;;;;;15.20;5.22;;;;;;;8.89;70.67;100519.13;4997580;28;20046;-79
2020/12/13 12:20:37;;;;;;;11.77;4.97;;;;;;;8.86;70.94;100514.25;5001534;28;20042;-79
2020/12/13 12:23:04;;;;;;;17.15;5.13;;;;;;;9.05;70.35;100523.16;4998853;28;20517;-79
2020/12/13 12:25:36;;;;;;;16.67;4.93;;;;;;;8.93;70.72;100520.13;4981750;28;20049;-77
2020/12/13 12:28:03;;;;;;;20.00;6.93;;;;;;;8.95;70.89;100512.41;4997729;28;20054;-76
2020/12/13 12:30:30;;;;;;;14.52;4.85;;;;;;;8.95;71.30;100512.41;5002466;28;20042;-76
2020/12/13 12:32:59;;;;;;;22.05;7.18;;;;;;;8.89;71.54;100523.81;4982262;28;20050;-79
2020/12/13 12:35:26;;;;;;;15.20;5.50;;;;;;;8.97;71.45;100525.81;4983767;28;20049;-78